createdAt,value
2023-04-29T00:02:04.146Z,22.27
2023-04-29T00:04:31.326Z,20.40
2023-04-29T00:06:58.581Z,21.80
2023-04-29T00:09:25.432Z,21.80
2023-04-29T00:11:52.564Z,19.93
2023-04-29T00:14:19.466Z,20.37
2023-04-29T00:16:47.162Z,20.67
2023-04-29T00:19:14.057Z,20.40
2023-04-29T00:21:41.480Z,20.93
2023-04-29T00:24:08.358Z,20.33
2023-04-29T00:26:35.530Z,20.30
2023-04-29T00:29:02.377Z,20.63
2023-04-29T00:31:29.565Z,18.47
2023-04-29T00:33:56.447Z,19.23
2023-04-29T00:36:23.559Z,19.47
2023-04-29T00:38:50.398Z,19.27
2023-04-29T00:41:17.599Z,18.13
2023-04-29T00:43:44.541Z,18.53
2023-04-29T00:46:11.792Z,20.33
2023-04-29T00:48:39.499Z,18.73
2023-04-29T00:51:07.106Z,19.10
2023-04-29T00:53:35.105Z,18.27
2023-04-29T00:56:03.421Z,16.58
2023-04-29T00:58:33.649Z,17.33
2023-04-29T01:01:04.396Z,18.37
2023-04-29T01:03:32.605Z,15.73
2023-04-29T01:06:14.900Z,19.55
2023-04-29T01:09:00.462Z,18.00
2023-04-29T01:11:34.819Z,15.37
2023-04-29T01:14:03.489Z,13.97
2023-04-29T01:16:48.838Z,15.70
2023-04-29T01:20:00.215Z,14.17
2023-04-29T01:22:27.562Z,14.13
2023-04-29T01:24:55.099Z,14.53
2023-04-29T01:27:58.829Z,15.10
2023-04-29T01:30:53.864Z,14.77
2023-04-29T01:33:40.592Z,12.67
2023-04-29T01:36:46.526Z,12.57
2023-04-29T01:39:56.779Z,13.00
2023-04-29T01:42:46.052Z,14.10
2023-04-29T01:45:19.241Z,14.43
2023-04-29T01:47:47.567Z,12.57
2023-04-29T01:50:14.808Z,15.50
2023-04-29T01:52:41.787Z,15.07
2023-04-29T01:55:09.663Z,14.87
2023-04-29T01:57:36.589Z,15.20
2023-04-29T02:00:04.898Z,13.83
2023-04-29T02:02:31.910Z,14.17
2023-04-29T02:04:59.498Z,15.10
2023-04-29T02:07:26.561Z,13.60
2023-04-29T02:09:53.926Z,13.43
2023-04-29T02:12:21.022Z,13.47
2023-04-29T02:14:48.134Z,12.93
2023-04-29T02:17:15.066Z,13.80
2023-04-29T02:19:42.206Z,12.70
2023-04-29T02:22:09.372Z,11.60
2023-04-29T02:24:36.828Z,12.73
2023-04-29T02:27:05.939Z,11.90
2023-04-29T02:29:33.491Z,12.13
2023-04-29T02:32:00.373Z,12.43
2023-04-29T02:34:27.767Z,11.80
2023-04-29T02:36:54.695Z,12.50
2023-04-29T02:39:21.916Z,13.27
2023-04-29T02:41:49.201Z,13.47
2023-04-29T02:44:16.397Z,13.37
2023-04-29T02:46:45.762Z,13.00
2023-04-29T02:49:14.117Z,14.03
2023-04-29T02:51:41.546Z,13.93
2023-04-29T02:54:08.801Z,12.83
2023-04-29T02:56:35.688Z,14.23
2023-04-29T02:59:02.831Z,12.73
2023-04-29T03:01:29.647Z,15.10
2023-04-29T03:03:57.646Z,13.13
2023-04-29T03:06:24.628Z,14.57
2023-04-29T03:08:53.071Z,13.47
2023-04-29T03:11:20.792Z,13.67
2023-04-29T03:13:48.249Z,13.37
2023-04-29T03:16:17.006Z,13.27
2023-04-29T03:23:42.866Z,13.50
2023-04-29T03:26:10.581Z,14.93
2023-04-29T03:28:37.504Z,13.60
2023-04-29T03:31:04.926Z,12.60
2023-04-29T03:33:31.932Z,14.07
2023-04-29T03:35:59.165Z,13.67
2023-04-29T03:38:28.615Z,14.83
2023-04-29T03:40:55.973Z,15.10
2023-04-29T03:43:22.868Z,14.80
2023-04-29T03:45:50.105Z,14.67
2023-04-29T03:48:16.988Z,14.70
2023-04-29T03:50:44.298Z,15.33
2023-04-29T03:53:12.120Z,14.67
2023-04-29T03:55:39.351Z,16.23
2023-04-29T03:58:06.332Z,14.27
2023-04-29T04:00:33.954Z,16.07
2023-04-29T04:03:03.516Z,15.03
2023-04-29T04:05:32.341Z,16.90
2023-04-29T04:08:00.639Z,15.13
2023-04-29T04:10:28.586Z,12.75
2023-04-29T04:12:55.624Z,11.80
2023-04-29T04:15:22.792Z,11.80
2023-04-29T04:17:49.633Z,10.70
2023-04-29T04:20:17.457Z,13.30
2023-04-29T04:22:44.295Z,13.03
2023-04-29T04:25:11.482Z,12.33
2023-04-29T04:27:38.342Z,13.70
2023-04-29T04:30:06.145Z,12.70
2023-04-29T04:32:33.073Z,12.23
2023-04-29T04:35:00.254Z,12.97
2023-04-29T04:37:27.128Z,12.80
2023-04-29T04:39:54.496Z,12.27
2023-04-29T04:42:22.784Z,11.27
2023-04-29T04:44:49.963Z,9.35
2023-04-29T04:47:16.794Z,12.20
2023-04-29T04:49:44.505Z,12.27
2023-04-29T04:52:11.976Z,11.70
2023-04-29T04:54:39.129Z,10.03
2023-04-29T04:57:06.360Z,10.77
2023-04-29T04:59:34.356Z,9.80
2023-04-29T05:02:01.217Z,9.10
2023-04-29T05:04:28.603Z,9.33
2023-04-29T05:06:55.640Z,9.82
2023-04-29T05:09:22.756Z,8.98
2023-04-29T05:11:49.631Z,7.78
2023-04-29T05:14:17.273Z,9.68
2023-04-29T05:16:45.473Z,9.68
2023-04-29T05:19:12.862Z,9.65
2023-04-29T05:21:39.730Z,10.55
2023-04-29T05:24:07.410Z,9.00
2023-04-29T05:26:34.281Z,9.25
2023-04-29T05:29:01.583Z,8.50
2023-04-29T05:31:28.730Z,8.27
2023-04-29T05:33:55.985Z,8.52
2023-04-29T05:36:22.824Z,9.32
2023-04-29T05:38:49.937Z,8.60
2023-04-29T05:41:16.767Z,9.02
2023-04-29T05:43:44.011Z,9.07
2023-04-29T05:46:10.946Z,9.75
2023-04-29T05:48:38.095Z,9.85
2023-04-29T05:51:04.986Z,9.95
2023-04-29T05:53:33.330Z,9.73
2023-04-29T05:56:00.182Z,9.60
2023-04-29T05:58:27.349Z,10.43
2023-04-29T06:00:54.178Z,9.95
2023-04-29T06:03:21.524Z,8.75
2023-04-29T06:05:49.110Z,7.43
2023-04-29T06:08:16.783Z,9.23
2023-04-29T06:10:43.586Z,9.43
2023-04-29T06:13:10.848Z,8.82
2023-04-29T06:15:38.146Z,9.18
2023-04-29T06:18:05.336Z,8.45
2023-04-29T06:20:36.861Z,8.27
2023-04-29T06:23:05.475Z,7.85
2023-04-29T06:25:32.355Z,7.43
2023-04-29T06:27:59.675Z,7.15
2023-04-29T06:30:26.782Z,7.72
2023-04-29T06:32:54.041Z,8.23
2023-04-29T06:35:20.988Z,6.50
2023-04-29T06:37:48.153Z,6.70
2023-04-29T06:40:15.054Z,6.78
2023-04-29T06:42:43.784Z,6.88
2023-04-29T06:45:11.092Z,6.43
2023-04-29T06:47:38.408Z,6.63
2023-04-29T06:50:05.769Z,7.03
2023-04-29T06:52:33.531Z,6.63
2023-04-29T06:55:00.820Z,5.93
2023-04-29T06:57:27.916Z,5.60
2023-04-29T06:59:55.037Z,5.70
2023-04-29T07:02:22.337Z,5.32
2023-04-29T07:04:50.377Z,5.20
2023-04-29T07:07:17.612Z,5.22
2023-04-29T07:09:44.456Z,6.20
2023-04-29T07:12:11.570Z,6.00
2023-04-29T07:14:38.693Z,5.28
2023-04-29T07:17:06.074Z,6.05
2023-04-29T07:19:33.020Z,6.45
2023-04-29T07:22:00.191Z,6.65
2023-04-29T07:24:27.165Z,7.32
2023-04-29T07:26:54.327Z,6.20
2023-04-29T07:29:21.207Z,6.93
2023-04-29T07:31:48.436Z,6.60
2023-04-29T07:34:15.259Z,6.80
2023-04-29T07:36:42.453Z,7.10
2023-04-29T07:39:09.458Z,7.03
2023-04-29T07:41:36.649Z,7.65
2023-04-29T07:44:03.563Z,6.88
2023-04-29T07:46:31.527Z,6.53
2023-04-29T07:48:58.475Z,8.13
2023-04-29T07:51:25.612Z,28.92
2023-04-29T07:53:52.474Z,6.28
2023-04-29T07:56:20.208Z,10.18
2023-04-29T07:58:47.234Z,11.48
2023-04-29T08:01:17.710Z,8.15
2023-04-29T08:03:45.383Z,6.32
2023-04-29T08:06:12.988Z,5.95
2023-04-29T08:08:40.178Z,6.35
2023-04-29T08:11:07.552Z,5.65
2023-04-29T08:13:34.407Z,4.90
2023-04-29T08:16:01.561Z,5.55
2023-04-29T08:18:28.527Z,5.00
2023-04-29T08:20:55.811Z,6.20
2023-04-29T08:23:22.699Z,6.25
2023-04-29T08:25:52.305Z,6.00
2023-04-29T08:28:19.717Z,4.47
2023-04-29T08:30:46.987Z,5.18
2023-04-29T08:33:14.593Z,5.70
2023-04-29T08:35:42.241Z,4.93
2023-04-29T08:38:10.075Z,6.28
2023-04-29T08:40:43.229Z,6.07
2023-04-29T08:43:10.575Z,4.93
2023-04-29T08:45:39.778Z,4.55
2023-04-29T08:48:10.520Z,4.25
2023-04-29T08:50:40.401Z,4.18
2023-04-29T08:53:08.281Z,4.10
2023-04-29T08:55:46.179Z,4.75
2023-04-29T08:58:14.505Z,4.50
2023-04-29T09:00:43.276Z,4.82
2023-04-29T09:03:33.530Z,3.85
2023-04-29T09:06:02.117Z,4.75
2023-04-29T09:08:30.068Z,3.97
2023-04-29T09:10:58.518Z,3.70
2023-04-29T09:13:31.477Z,4.03
2023-04-29T09:15:59.130Z,3.10
2023-04-29T09:18:46.752Z,3.85
2023-04-29T09:21:21.732Z,4.03
2023-04-29T09:23:54.519Z,4.38
2023-04-29T09:26:22.834Z,5.35
2023-04-29T09:29:09.352Z,4.25
2023-04-29T09:31:39.625Z,3.90
2023-04-29T09:34:06.979Z,4.30
2023-04-29T09:36:38.753Z,4.78
2023-04-29T09:39:11.588Z,3.67
2023-04-29T09:42:03.816Z,3.70
2023-04-29T09:44:37.978Z,4.03
2023-04-29T09:47:06.052Z,3.45
2023-04-29T09:49:45.367Z,4.15
2023-04-29T09:52:15.154Z,4.50
2023-04-29T09:54:43.489Z,4.75
2023-04-29T09:57:12.562Z,4.35
2023-04-29T09:59:41.188Z,4.28
2023-04-29T10:02:15.730Z,4.10
2023-04-29T10:04:45.868Z,3.97
2023-04-29T10:07:17.800Z,3.70
2023-04-29T10:09:48.980Z,6.68
2023-04-29T10:12:18.658Z,4.32
2023-04-29T10:14:55.315Z,4.90
2023-04-29T10:17:47.269Z,3.53
2023-04-29T10:20:24.320Z,3.83
2023-04-29T10:22:56.722Z,3.63
2023-04-29T10:25:24.839Z,4.53
2023-04-29T10:27:53.752Z,16.65
2023-04-29T10:30:22.034Z,28.10
2023-04-29T10:32:52.507Z,19.73
2023-04-29T10:35:23.468Z,9.55
2023-04-29T10:37:53.048Z,4.70
2023-04-29T10:40:31.711Z,12.75
2023-04-29T10:42:59.736Z,9.48
2023-04-29T10:45:31.866Z,3.22
2023-04-29T10:48:02.927Z,7.20
2023-04-29T10:50:31.548Z,4.13
2023-04-29T10:53:02.147Z,3.53
2023-04-29T10:55:29.407Z,4.53
2023-04-29T10:57:57.362Z,3.75
2023-04-29T11:00:32.843Z,3.30
2023-04-29T11:03:01.748Z,3.67
2023-04-29T11:05:36.812Z,3.53
2023-04-29T11:08:13.261Z,4.07
2023-04-29T11:10:43.780Z,4.13
2023-04-29T11:13:30.068Z,4.93
2023-04-29T11:16:11.302Z,5.45
2023-04-29T11:19:17.621Z,3.67
2023-04-29T11:21:47.260Z,5.03
2023-04-29T11:24:18.087Z,5.53
2023-04-29T11:26:46.352Z,3.60
2023-04-29T11:29:14.755Z,4.40
2023-04-29T11:31:42.055Z,6.25
2023-04-29T11:34:09.176Z,6.45
2023-04-29T11:36:36.762Z,4.00
2023-04-29T11:39:05.149Z,3.75
2023-04-29T11:41:32.191Z,4.07
2023-04-29T11:44:00.354Z,3.88
2023-04-29T11:46:31.035Z,3.50
2023-04-29T11:49:00.128Z,5.63
2023-04-29T11:51:28.086Z,4.68
2023-04-29T11:53:58.011Z,5.83
2023-04-29T11:56:25.688Z,4.93
2023-04-29T11:58:59.182Z,5.10
2023-04-29T12:01:27.227Z,6.30
2023-04-29T12:04:00.028Z,3.60
2023-04-29T12:06:30.562Z,3.80
2023-04-29T12:09:01.369Z,5.15
2023-04-29T12:11:29.014Z,4.47
2023-04-29T12:13:58.200Z,3.35
2023-04-29T12:16:25.916Z,3.28
2023-04-29T12:18:53.573Z,3.67
2023-04-29T12:21:22.793Z,3.80
2023-04-29T12:23:51.793Z,4.30
2023-04-29T12:26:21.097Z,3.78
2023-04-29T12:28:55.603Z,4.43
2023-04-29T12:31:22.899Z,3.60
2023-04-29T12:33:55.349Z,4.85
2023-04-29T12:36:23.474Z,4.20
2023-04-29T12:38:50.751Z,5.20
2023-04-29T12:41:17.687Z,4.20
2023-04-29T12:43:44.975Z,4.25
2023-04-29T12:46:15.260Z,4.40
2023-04-29T12:48:43.861Z,6.80
2023-04-29T12:51:11.688Z,4.63
2023-04-29T12:53:39.426Z,4.18
2023-04-29T12:56:06.891Z,4.07
2023-04-29T12:58:35.082Z,3.92
2023-04-29T13:01:02.152Z,3.53
2023-04-29T13:03:29.563Z,4.15
2023-04-29T13:05:57.323Z,6.25
2023-04-29T13:08:24.622Z,6.85
2023-04-29T13:10:51.692Z,5.93
2023-04-29T13:13:18.858Z,6.70
2023-04-29T13:15:45.776Z,4.22
2023-04-29T13:18:12.961Z,7.65
2023-04-29T13:20:42.329Z,7.15
2023-04-29T13:23:10.789Z,5.35
2023-04-29T13:25:37.867Z,3.58
2023-04-29T13:28:07.925Z,4.70
2023-04-29T13:30:35.162Z,6.82
2023-04-29T13:33:09.766Z,3.75
2023-04-29T13:35:41.612Z,3.53
2023-04-29T13:38:09.241Z,4.63
2023-04-29T13:40:39.424Z,4.95
2023-04-29T13:43:15.399Z,4.60
2023-04-29T13:45:47.839Z,6.07
2023-04-29T13:48:26.253Z,4.38
2023-04-29T13:54:17.609Z,5.07
2023-04-29T14:01:55.326Z,7.18
2023-04-29T14:04:07.260Z,4.47
2023-04-29T14:06:34.875Z,4.45
2023-04-29T14:09:03.925Z,15.77
2023-04-29T14:11:31.189Z,10.63
2023-04-29T14:13:58.255Z,4.03
2023-04-29T14:16:25.210Z,3.20
2023-04-29T14:18:52.553Z,5.75
2023-04-29T14:21:22.510Z,4.32
2023-04-29T14:23:52.691Z,5.53
2023-04-29T14:28:57.678Z,4.55
2023-04-29T14:31:28.080Z,4.60
2023-04-29T14:33:58.838Z,3.95
2023-04-29T14:36:26.755Z,4.40
2023-04-29T14:38:54.391Z,4.25
2023-04-29T14:41:24.543Z,4.65
2023-04-29T14:43:51.938Z,4.70
2023-04-29T14:46:19.141Z,3.75
2023-04-29T14:48:46.379Z,5.10
2023-04-29T14:51:13.259Z,6.53
2023-04-29T14:53:40.506Z,3.47
2023-04-29T14:56:08.070Z,3.85
2023-04-29T14:58:35.484Z,4.38
2023-04-29T15:01:02.451Z,3.90
2023-04-29T15:03:29.715Z,3.80
2023-04-29T15:05:58.954Z,4.38
2023-04-29T15:08:26.342Z,5.13
2023-04-29T15:10:53.357Z,3.35
2023-04-29T15:13:20.492Z,3.53
2023-04-29T15:15:47.672Z,3.70
2023-04-29T15:18:14.960Z,4.10
2023-04-29T15:20:42.568Z,3.80
2023-04-29T15:23:10.313Z,4.00
2023-04-29T15:25:38.390Z,3.40
2023-04-29T15:28:05.949Z,3.40
2023-04-29T15:30:33.026Z,3.25
2023-04-29T15:33:00.442Z,8.20
2023-04-29T15:35:27.769Z,13.25
2023-04-29T15:37:55.027Z,8.40
2023-04-29T15:40:22.068Z,15.00
2023-04-29T15:42:49.243Z,6.47
2023-04-29T15:45:17.071Z,5.28
2023-04-29T15:47:44.349Z,4.22
2023-04-29T15:50:11.649Z,4.78
2023-04-29T15:52:38.885Z,3.97
2023-04-29T15:55:07.157Z,3.67
2023-04-29T15:57:41.277Z,3.30
2023-04-29T16:00:09.035Z,4.43
2023-04-29T16:02:36.418Z,3.65
2023-04-29T16:05:03.674Z,4.50
2023-04-29T16:07:31.300Z,5.18
2023-04-29T16:09:58.208Z,5.07
2023-04-29T16:12:25.586Z,5.18
2023-04-29T16:14:52.653Z,5.60
2023-04-29T16:17:19.797Z,5.00
2023-04-29T16:19:46.706Z,4.68
2023-04-29T16:22:13.960Z,4.13
2023-04-29T16:24:40.922Z,4.03
2023-04-29T16:27:08.173Z,4.45
2023-04-29T16:29:35.098Z,5.45
2023-04-29T16:32:02.376Z,5.32
2023-04-29T16:34:30.619Z,4.40
2023-04-29T16:36:58.800Z,4.32
2023-04-29T16:39:33.460Z,4.32
2023-04-29T16:42:01.533Z,3.90
2023-04-29T16:44:28.417Z,3.53
2023-04-29T16:46:55.624Z,4.13
2023-04-29T16:49:28.307Z,3.75
2023-04-29T16:51:55.540Z,3.85
2023-04-29T16:54:23.270Z,3.95
2023-04-29T16:56:51.322Z,4.05
2023-04-29T16:59:18.318Z,3.75
2023-04-29T17:01:45.808Z,3.90
2023-04-29T17:04:12.778Z,4.28
2023-04-29T17:06:40.965Z,3.90
2023-04-29T17:09:08.000Z,4.20
2023-04-29T17:11:35.104Z,4.20
2023-04-29T17:14:02.019Z,4.32
2023-04-29T17:16:30.810Z,3.88
2023-04-29T17:18:57.841Z,6.10
2023-04-29T17:21:26.072Z,4.80
2023-04-29T17:23:53.466Z,8.60
2023-04-29T17:26:21.340Z,7.50
2023-04-29T17:28:48.422Z,11.98
2023-04-29T17:31:15.855Z,6.03
2023-04-29T17:33:54.734Z,6.28
2023-04-29T17:36:24.690Z,10.52
2023-04-29T17:38:51.566Z,9.30
2023-04-29T17:41:18.699Z,9.20
2023-04-29T17:43:45.547Z,6.18
2023-04-29T17:46:12.931Z,5.80
2023-04-29T17:48:39.751Z,28.55
2023-04-29T17:51:06.885Z,10.07
2023-04-29T17:53:33.842Z,18.05
2023-04-29T17:56:01.003Z,24.65
2023-04-29T17:58:29.163Z,13.43
2023-04-29T18:00:56.783Z,16.83
2023-04-29T18:03:24.014Z,15.73
2023-04-29T18:05:51.328Z,14.50
2023-04-29T18:08:18.173Z,20.77
2023-04-29T18:10:45.578Z,10.50
2023-04-29T18:13:12.575Z,14.13
2023-04-29T18:15:39.800Z,11.75
2023-04-29T18:18:07.050Z,17.42
2023-04-29T18:20:34.539Z,11.43
2023-04-29T18:23:01.756Z,10.52
2023-04-29T18:25:28.895Z,32.25
2023-04-29T18:28:07.588Z,22.52
2023-04-29T18:30:43.024Z,39.85
2023-04-29T18:33:09.967Z,36.15
2023-04-29T18:35:37.855Z,20.73
2023-04-29T18:38:04.780Z,39.42
2023-04-29T18:40:32.393Z,32.60
2023-04-29T18:42:59.218Z,22.00
2023-04-29T18:45:26.468Z,19.25
2023-04-29T18:47:53.475Z,19.55
2023-04-29T18:50:20.725Z,14.20
2023-04-29T18:52:47.670Z,15.35
2023-04-29T18:55:15.128Z,17.70
2023-04-29T18:57:42.310Z,14.63
2023-04-29T19:00:10.179Z,13.82
2023-04-29T19:02:38.372Z,22.73
2023-04-29T19:05:09.465Z,13.63
2023-04-29T19:07:36.376Z,10.88
2023-04-29T19:10:04.147Z,15.30
2023-04-29T19:12:31.157Z,14.80
2023-04-29T19:14:58.848Z,7.10
2023-04-29T19:17:25.881Z,10.27
2023-04-29T19:19:53.364Z,10.55
2023-04-29T19:22:20.829Z,9.85
2023-04-29T19:24:48.070Z,8.32
2023-04-29T19:27:14.949Z,6.88
2023-04-29T19:29:42.190Z,9.32
2023-04-29T19:32:09.019Z,8.38
2023-04-29T19:34:36.483Z,6.80
2023-04-29T19:37:04.089Z,10.70
2023-04-29T19:39:31.440Z,7.10
2023-04-29T19:41:58.347Z,7.35
2023-04-29T19:44:25.610Z,5.15
2023-04-29T19:46:53.702Z,7.82
2023-04-29T19:49:21.262Z,13.13
2023-04-29T19:51:48.177Z,12.63
2023-04-29T19:54:15.390Z,10.63
2023-04-29T19:56:42.259Z,13.20
2023-04-29T19:59:09.408Z,10.80
2023-04-29T20:01:36.450Z,5.70
2023-04-29T20:04:03.687Z,9.32
2023-04-29T20:06:32.212Z,8.48
2023-04-29T20:08:59.413Z,7.93
2023-04-29T20:11:26.404Z,9.40
2023-04-29T20:13:53.685Z,13.07
2023-04-29T20:16:20.705Z,14.20
2023-04-29T20:18:48.044Z,13.88
2023-04-29T20:21:14.881Z,14.07
2023-04-29T20:23:42.089Z,14.77
2023-04-29T20:26:09.003Z,12.77
2023-04-29T20:28:36.140Z,11.10
2023-04-29T20:31:03.015Z,10.43
2023-04-29T20:33:30.274Z,10.15
2023-04-29T20:35:59.527Z,11.10
2023-04-29T20:38:27.245Z,10.07
2023-04-29T20:40:54.488Z,11.00
2023-04-29T20:43:21.624Z,11.45
2023-04-29T20:45:48.717Z,14.80
2023-04-29T20:48:16.282Z,13.55
2023-04-29T20:50:43.291Z,14.07
2023-04-29T20:53:11.110Z,13.60
2023-04-29T20:55:37.960Z,17.27
2023-04-29T20:58:05.073Z,15.93
2023-04-29T21:00:31.998Z,12.48
2023-04-29T21:02:59.209Z,18.58
2023-04-29T21:05:26.106Z,14.52
2023-04-29T21:07:53.381Z,13.30
2023-04-29T21:10:20.964Z,12.77
2023-04-29T21:12:48.122Z,10.60
2023-04-29T21:15:15.365Z,8.32
2023-04-29T21:17:42.534Z,8.40
2023-04-29T21:20:09.688Z,13.55
2023-04-29T21:22:36.777Z,13.65
2023-04-29T21:25:05.425Z,15.98
2023-04-29T21:27:32.600Z,12.85
2023-04-29T21:29:59.438Z,15.55
2023-04-29T21:32:26.859Z,17.65
2023-04-29T21:34:53.742Z,18.02
2023-04-29T21:37:20.943Z,14.27
2023-04-29T21:39:47.808Z,18.23
2023-04-29T21:42:15.283Z,12.73
2023-04-29T21:44:42.200Z,11.75
2023-04-29T21:47:09.426Z,38.20
2023-04-29T21:49:36.661Z,21.15
2023-04-29T21:52:04.273Z,17.63
2023-04-29T21:54:31.195Z,20.70
2023-04-29T21:56:58.492Z,18.55
2023-04-29T21:59:25.347Z,19.33
2023-04-29T22:02:00.239Z,18.73
2023-04-29T22:04:28.351Z,17.58
2023-04-29T22:06:59.116Z,18.77
2023-04-29T22:09:26.051Z,18.83
2023-04-29T22:11:53.213Z,20.05
2023-04-29T22:14:20.076Z,20.80
2023-04-29T22:16:47.218Z,17.50
2023-04-29T22:19:14.172Z,19.85
2023-04-29T22:21:43.185Z,18.65
2023-04-29T22:24:10.332Z,19.13
2023-04-29T22:26:37.594Z,17.65
2023-04-29T22:29:04.636Z,18.02
2023-04-29T22:31:31.895Z,16.60
2023-04-29T22:33:58.805Z,19.13
2023-04-29T22:36:26.076Z,16.63
2023-04-29T22:38:52.952Z,14.68
2023-04-29T22:41:20.080Z,16.02
2023-04-29T22:43:46.909Z,15.43
2023-04-29T22:46:14.074Z,16.15
2023-04-29T22:48:41.015Z,16.65
2023-04-29T22:51:08.177Z,16.95
2023-04-29T22:53:35.066Z,18.15
2023-04-29T22:56:02.266Z,16.05
2023-04-29T22:58:29.197Z,16.27
2023-04-29T23:00:57.916Z,16.13
2023-04-29T23:03:25.349Z,17.08
2023-04-29T23:05:57.227Z,19.55
2023-04-29T23:08:24.065Z,19.17
2023-04-29T23:10:51.258Z,18.15
2023-04-29T23:13:18.203Z,16.40
2023-04-29T23:15:45.625Z,15.80
2023-04-29T23:18:12.778Z,14.23
2023-04-29T23:20:40.060Z,13.88
2023-04-29T23:23:06.926Z,15.18
2023-04-29T23:25:34.721Z,14.68
2023-04-29T23:28:01.670Z,14.60
2023-04-29T23:30:28.865Z,13.57
2023-04-29T23:32:55.982Z,13.82
2023-04-29T23:35:23.258Z,13.30
2023-04-29T23:37:50.061Z,12.70
2023-04-29T23:40:17.247Z,12.27
2023-04-29T23:42:44.055Z,13.23
2023-04-29T23:45:11.244Z,12.27
2023-04-29T23:47:38.318Z,11.32
2023-04-29T23:50:06.566Z,10.80
2023-04-29T23:52:33.369Z,13.30
2023-04-29T23:55:00.578Z,14.98
2023-04-29T23:57:27.452Z,13.20
2023-04-29T23:59:54.891Z,12.55
